Time;durP1;ratioP1;P1;durP2;ratioP2;P2;SDS_P1;SDS_P2;PMS_P1;PMS_P2;Temp;Humidity;BMP_temperature;BMP_pressure;BME280_temperature;BME280_humidity;BME280_pressure;Samples;Min_cycle;Max_cycle;Signal;HPM_P1;HPM_P2
2023/12/03 00:01:08;;;;;;;4.70;3.40;;;;;;;7.45;100.00;96214.08;110499;1239;69823;-67
2023/12/03 00:03:57;;;;;;;5.00;3.30;;;;;;;7.41;100.00;96214.89;110419;1239;69398;-67
2023/12/03 00:06:27;;;;;;;;;;;;;;;7.37;100.00;96218.65;110555;1239;58937;-67
2023/12/03 00:09:02;;;;;;;3.00;2.30;;;;;;;7.34;100.00;96218.91;110473;1239;59313;-67
2023/12/03 00:11:32;;;;;;;3.20;2.50;;;;;;;7.32;100.00;96219.91;110503;1238;71230;-67
2023/12/03 00:14:02;;;;;;;2.90;2.30;;;;;;;7.32;100.00;96229.48;110476;1239;68344;-67
2023/12/03 00:16:33;;;;;;;4.90;3.50;;;;;;;7.30;100.00;96236.03;110425;1245;69296;-67
2023/12/03 00:19:03;;;;;;;4.00;3.00;;;;;;;7.27;100.00;96236.08;110440;1238;58943;-67
2023/12/03 00:21:33;;;;;;;2.60;2.20;;;;;;;7.24;100.00;96237.19;110487;1239;58916;-68
2023/12/03 00:24:03;;;;;;;2.80;2.30;;;;;;;7.20;100.00;96227.00;110596;1239;70405;-68
2023/12/03 00:26:33;;;;;;;3.10;2.20;;;;;;;7.15;100.00;96228.02;110587;1239;69214;-67
2023/12/03 00:29:03;;;;;;;2.80;2.20;;;;;;;7.10;100.00;96222.82;110514;1241;68596;-67
2023/12/03 00:31:34;;;;;;;3.60;2.80;;;;;;;7.04;100.00;96220.17;110536;1239;58893;-67
2023/12/03 00:34:06;;;;;;;4.00;2.50;;;;;;;6.99;100.00;96223.91;110680;1239;58875;-67
2023/12/03 00:36:37;;;;;;;3.20;2.50;;;;;;;6.93;100.00;96229.56;110513;1237;70832;-67
2023/12/03 00:39:09;;;;;;;3.30;2.60;;;;;;;6.87;100.00;96231.52;110580;1239;68229;-67
2023/12/03 00:41:40;;;;;;;3.80;2.50;;;;;;;6.85;100.00;96235.55;110526;1239;69331;-67
2023/12/03 00:44:13;;;;;;;4.50;2.30;;;;;;;6.83;100.00;96243.80;110623;1239;58931;-67
2023/12/03 00:46:45;;;;;;;3.40;2.50;;;;;;;6.81;100.00;96245.39;110517;1239;58930;-67
2023/12/03 00:49:18;;;;;;;3.60;2.10;;;;;;;6.80;100.00;96241.78;110478;1239;70974;-67
2023/12/03 00:51:50;;;;;;;3.90;2.40;;;;;;;6.80;100.00;96253.05;110501;1239;68998;-67
2023/12/03 00:54:22;;;;;;;3.50;2.00;;;;;;;6.76;100.00;96265.15;110582;1239;68296;-67
2023/12/03 00:56:54;;;;;;;3.50;1.90;;;;;;;6.69;100.00;96274.70;110475;1237;58931;-67
2023/12/03 00:59:25;;;;;;;3.20;2.40;;;;;;;6.65;100.00;96273.23;110560;1239;58931;-67
2023/12/03 01:01:57;;;;;;;3.50;2.40;;;;;;;6.65;100.00;96273.59;110561;1243;70583;-67
2023/12/03 01:04:32;;;;;;;3.80;2.80;;;;;;;6.68;100.00;96280.34;110580;1237;69305;-67
2023/12/03 01:07:04;;;;;;;4.50;3.10;;;;;;;6.68;100.00;96268.37;110534;1242;69296;-67
2023/12/03 01:09:34;;;;;;;4.20;3.00;;;;;;;6.68;100.00;96272.73;110537;1239;59388;-67
2023/12/03 01:12:08;;;;;;;3.40;2.90;;;;;;;6.68;100.00;96272.69;110567;1239;58869;-67
2023/12/03 01:14:43;;;;;;;4.00;2.80;;;;;;;6.66;100.00;96274.55;110535;1241;70547;-67
2023/12/03 01:17:17;;;;;;;3.80;2.60;;;;;;;6.63;100.00;96272.15;110423;1237;69166;-67
2023/12/03 01:19:47;;;;;;;2.90;2.00;;;;;;;6.60;100.00;96274.30;110479;1239;69292;-67
2023/12/03 01:22:23;;;;;;;3.40;2.60;;;;;;;6.53;100.00;96278.61;110435;1239;58876;-67
2023/12/03 01:24:56;;;;;;;4.50;2.90;;;;;;;6.42;100.00;96280.86;110584;1239;58903;-67
2023/12/03 01:27:27;;;;;;;4.40;2.50;;;;;;;6.32;100.00;96275.15;110433;1239;70581;-67
2023/12/03 01:30:01;;;;;;;3.90;2.70;;;;;;;6.29;100.00;96274.21;110537;1239;69462;-67
2023/12/03 01:32:35;;;;;;;3.00;2.50;;;;;;;6.30;100.00;96271.33;110556;1239;69116;-67
2023/12/03 01:35:09;;;;;;;2.90;2.30;;;;;;;6.31;100.00;96268.86;110573;1237;58967;-67
2023/12/03 01:37:43;;;;;;;3.40;2.10;;;;;;;6.30;100.00;96266.52;110710;1239;58863;-67
2023/12/03 01:40:16;;;;;;;4.00;2.10;;;;;;;6.26;100.00;96262.32;110563;1239;68872;-67
2023/12/03 01:42:50;;;;;;;4.30;2.10;;;;;;;6.20;100.00;96265.65;110560;1238;68401;-68
2023/12/03 01:45:24;;;;;;;3.20;2.10;;;;;;;6.14;100.00;96273.38;110575;1238;69138;-67
2023/12/03 01:47:56;;;;;;;2.90;2.20;;;;;;;6.08;100.00;96273.44;110549;1239;58889;-67
2023/12/03 01:50:29;;;;;;;2.40;1.90;;;;;;;6.08;100.00;96269.84;110630;1239;58875;-67
2023/12/03 01:53:01;;;;;;;3.60;1.80;;;;;;;6.14;100.00;96271.67;107706;1239;3788884;-67
2023/12/03 01:55:39;;;;;;;2.40;1.80;;;;;;;6.19;100.00;96278.23;110429;1239;69268;-67
2023/12/03 01:58:21;;;;;;;4.50;2.10;;;;;;;6.21;100.00;96274.77;110459;1239;69346;-67
2023/12/03 02:00:53;;;;;;;2.90;1.80;;;;;;;6.25;100.00;96269.31;110496;1245;58939;-66
2023/12/03 02:03:24;;;;;;;3.20;2.20;;;;;;;6.32;100.00;96281.91;110469;1237;58817;-67
2023/12/03 02:06:10;;;;;;;2.60;2.00;;;;;;;6.41;100.00;96285.77;110468;1239;70586;-67
2023/12/03 02:08:47;;;;;;;4.20;2.20;;;;;;;6.43;100.00;96288.20;110445;1239;69266;-67
2023/12/03 02:11:18;;;;;;;2.80;1.90;;;;;;;6.38;100.00;96284.39;110433;1239;69281;-66
2023/12/03 02:13:48;;;;;;;2.40;1.80;;;;;;;6.36;100.00;96282.35;110319;1241;58910;-67
2023/12/03 02:16:22;;;;;;;2.90;1.80;;;;;;;6.36;100.00;96284.38;110498;1239;58883;-66
2023/12/03 02:19:02;;;;;;;2.20;1.70;;;;;;;6.40;100.00;96292.59;110538;1239;70859;-67
2023/12/03 02:21:34;;;;;;;3.60;2.00;;;;;;;6.43;100.00;96295.15;110455;1237;68426;-67
2023/12/03 02:24:08;;;;;;;2.10;1.60;;;;;;;6.43;100.00;96294.08;110523;1239;67702;-67
2023/12/03 02:26:41;;;;;;;;;;;;;;;6.45;100.00;96300.19;110534;1237;58941;-67
2023/12/03 02:29:14;;;;;;;2.30;2.00;;;;;;;6.52;100.00;96300.89;110610;1238;58921;-67
2023/12/03 02:31:48;;;;;;;2.30;1.90;;;;;;;6.59;100.00;96308.64;110485;1239;69514;-66
2023/12/03 02:34:18;;;;;;;1.90;1.70;;;;;;;6.61;100.00;96312.14;110481;1239;68468;-67
2023/12/03 02:36:49;;;;;;;4.10;2.20;;;;;;;6.63;100.00;96312.36;110514;1239;69436;-67
2023/12/03 02:39:24;;;;;;;2.80;1.60;;;;;;;6.67;100.00;96310.38;110547;1238;58866;-67
2023/12/03 02:41:58;;;;;;;2.90;2.00;;;;;;;6.71;100.00;96311.56;110568;1239;58950;-67
2023/12/03 02:44:39;;;;;;;3.80;1.80;;;;;;;6.87;100.00;96319.01;110464;1239;70777;-67
2023/12/03 02:47:13;;;;;;;3.40;2.30;;;;;;;6.99;100.00;96329.18;110652;1239;68483;-67
2023/12/03 02:49:54;;;;;;;4.10;2.50;;;;;;;7.09;100.00;96334.82;110511;1238;68342;-67
2023/12/03 02:52:35;;;;;;;2.80;2.10;;;;;;;7.21;100.00;96337.29;110340;1237;58919;-67
2023/12/03 02:55:09;;;;;;;3.80;2.20;;;;;;;7.27;100.00;96340.28;110564;1239;58944;-67
2023/12/03 02:57:43;;;;;;;3.10;2.10;;;;;;;7.33;100.00;96335.11;110550;1237;70450;-67
2023/12/03 03:00:15;;;;;;;3.70;2.40;;;;;;;7.38;100.00;96340.26;110520;1238;68525;-67
2023/12/03 03:02:51;;;;;;;4.20;2.60;;;;;;;7.38;100.00;96344.73;110525;1238;68498;-67
2023/12/03 03:05:31;;;;;;;2.50;2.20;;;;;;;7.40;100.00;96348.59;110486;1237;58936;-67
2023/12/03 03:08:04;;;;;;;5.00;2.40;;;;;;;7.41;100.00;96347.14;110467;1239;58924;-69
2023/12/03 03:10:39;;;;;;;4.40;2.30;;;;;;;7.43;100.00;96349.59;110541;1238;69835;-68
2023/12/03 03:13:17;;;;;;;2.90;2.00;;;;;;;7.45;100.00;96356.05;110561;1239;69206;-68
2023/12/03 03:15:49;;;;;;;3.30;2.00;;;;;;;7.48;100.00;96365.02;110531;1238;69618;-68
2023/12/03 03:18:23;;;;;;;2.70;1.90;;;;;;;7.50;100.00;96373.50;110547;1239;59014;-68
2023/12/03 03:20:55;;;;;;;5.90;2.10;;;;;;;7.46;100.00;96380.06;110651;1239;58824;-68
2023/12/03 03:23:28;;;;;;;3.10;2.10;;;;;;;7.40;100.00;96380.13;110477;1237;69933;-68
2023/12/03 03:25:59;;;;;;;2.70;2.00;;;;;;;7.38;100.00;96384.98;110595;1244;69211;-67
2023/12/03 03:28:31;;;;;;;2.90;2.20;;;;;;;7.40;100.00;96386.06;110625;1238;69353;-67
2023/12/03 03:31:05;;;;;;;3.80;2.20;;;;;;;7.39;100.00;96389.59;110518;1239;58862;-67
2023/12/03 03:33:46;;;;;;;2.70;2.10;;;;;;;7.43;100.00;96383.60;110677;1239;58949;-67
2023/12/03 03:36:24;;;;;;;3.70;2.50;;;;;;;7.49;100.00;96382.98;110461;1239;70581;-67
2023/12/03 03:39:01;;;;;;;3.80;2.50;;;;;;;7.47;100.00;96386.92;110581;1246;69700;-67
2023/12/03 03:41:36;;;;;;;6.20;2.40;;;;;;;7.45;100.00;96389.66;110553;1239;69248;-68
2023/12/03 03:44:18;;;;;;;3.90;2.50;;;;;;;7.38;100.00;96396.73;110565;1239;58882;-68
2023/12/03 03:46:52;;;;;;;5.90;2.70;;;;;;;7.39;100.00;96407.32;110606;1239;58892;-68
2023/12/03 03:49:29;;;;;;;4.90;3.20;;;;;;;7.33;100.00;96422.79;110602;1238;70395;-68
2023/12/03 03:52:06;;;;;;;4.60;2.80;;;;;;;7.32;100.00;96428.41;110577;1238;69316;-68
2023/12/03 03:54:42;;;;;;;5.50;3.00;;;;;;;7.31;100.00;96437.15;110607;1246;69458;-68
2023/12/03 03:57:12;;;;;;;5.60;3.30;;;;;;;7.24;100.00;96435.78;110638;1239;58931;-68
2023/12/03 03:59:45;;;;;;;4.60;2.30;;;;;;;7.26;100.00;96444.52;110578;1239;58876;-68
2023/12/03 04:02:17;;;;;;;5.80;3.40;;;;;;;7.21;100.00;96448.18;110585;1245;71148;-68
2023/12/03 04:04:49;;;;;;;4.90;3.00;;;;;;;7.15;100.00;96458.69;110587;1239;69920;-67
2023/12/03 04:07:21;;;;;;;6.10;4.00;;;;;;;7.12;100.00;96463.69;110501;1239;68529;-67
2023/12/03 04:09:53;;;;;;;6.40;4.00;;;;;;;7.08;100.00;96473.20;110517;1239;58889;-68
2023/12/03 04:12:29;;;;;;;4.80;4.20;;;;;;;7.08;100.00;96479.10;110579;1238;58869;-67
2023/12/03 04:15:01;;;;;;;5.90;3.80;;;;;;;7.03;100.00;96486.21;110605;1239;70429;-65
2023/12/03 04:17:32;;;;;;;5.80;4.40;;;;;;;7.00;100.00;96490.95;110608;1237;68517;-67
2023/12/03 04:20:06;;;;;;;6.10;4.10;;;;;;;7.01;100.00;96501.95;110644;1239;69402;-67
2023/12/03 04:22:40;;;;;;;11.00;7.70;;;;;;;6.97;100.00;96505.71;110696;1240;58889;-67
2023/12/03 04:25:11;;;;;;;13.70;9.20;;;;;;;6.87;100.00;96520.41;110604;1239;58861;-67
2023/12/03 04:27:42;;;;;;;15.60;11.20;;;;;;;6.69;100.00;96524.53;110508;1239;69849;-67
2023/12/03 04:30:14;;;;;;;21.40;13.70;;;;;;;6.42;100.00;96526.92;110336;1237;69223;-66
2023/12/03 04:32:44;;;;;;;19.50;13.50;;;;;;;6.27;100.00;96537.34;110503;1239;69362;-67
2023/12/03 04:35:16;;;;;;;18.10;13.20;;;;;;;6.08;100.00;96553.70;110469;1237;58919;-67
2023/12/03 04:37:48;;;;;;;23.00;14.70;;;;;;;5.90;100.00;96554.58;110499;1237;58925;-67
2023/12/03 04:40:21;;;;;;;20.90;14.10;;;;;;;5.77;100.00;96558.91;110351;1241;69754;-67
2023/12/03 04:42:51;;;;;;;19.60;13.90;;;;;;;5.43;100.00;96565.97;110522;1239;69073;-67
2023/12/03 04:45:22;;;;;;;22.60;14.30;;;;;;;5.21;100.00;96570.54;110372;1237;68509;-67
2023/12/03 04:47:56;;;;;;;19.90;14.10;;;;;;;5.05;100.00;96576.73;110562;1237;58935;-67
2023/12/03 04:50:27;;;;;;;22.80;14.70;;;;;;;4.87;100.00;96579.77;110616;1239;58870;-67
2023/12/03 04:52:57;;;;;;;19.80;13.60;;;;;;;4.76;100.00;96577.88;110534;1238;70733;-67
2023/12/03 04:55:28;;;;;;;20.40;14.30;;;;;;;4.58;100.00;96576.38;110512;1239;69828;-66
2023/12/03 04:57:58;;;;;;;24.00;15.60;;;;;;;4.46;100.00;96579.05;110458;1242;69627;-66
2023/12/03 05:00:31;;;;;;;22.70;16.10;;;;;;;4.37;100.00;96591.19;110394;1238;58938;-66
2023/12/03 05:03:02;;;;;;;25.00;15.50;;;;;;;4.25;100.00;96596.39;110610;1237;58869;-67
2023/12/03 05:05:33;;;;;;;24.40;16.40;;;;;;;4.14;100.00;96600.33;110473;1239;70934;-66
2023/12/03 05:08:05;;;;;;;22.70;15.10;;;;;;;4.05;100.00;96614.29;110541;1239;69194;-66
2023/12/03 05:10:35;;;;;;;23.00;15.20;;;;;;;3.98;100.00;96625.92;110554;1239;69152;-66
2023/12/03 05:13:05;;;;;;;19.80;13.90;;;;;;;3.83;100.00;96636.76;110558;1239;59001;-67
2023/12/03 05:15:37;;;;;;;22.50;14.90;;;;;;;3.65;100.00;96645.91;110395;1242;58900;-67
2023/12/03 05:18:07;;;;;;;22.90;14.70;;;;;;;3.60;100.00;96659.81;110625;1238;70583;-67
2023/12/03 05:20:38;;;;;;;21.60;14.60;;;;;;;3.59;100.00;96664.05;110519;1239;69118;-66
2023/12/03 05:23:10;;;;;;;22.60;15.40;;;;;;;3.52;100.00;96665.98;110351;1241;69129;-66
2023/12/03 05:25:43;;;;;;;23.10;16.00;;;;;;;3.46;100.00;96676.48;110661;1237;58954;-68
2023/12/03 05:28:17;;;;;;;22.60;14.90;;;;;;;3.38;100.00;96689.99;110557;1239;58849;-66
2023/12/03 05:30:48;;;;;;;24.00;15.10;;;;;;;3.29;100.00;96704.12;110455;1239;68816;-66
2023/12/03 05:33:18;;;;;;;;;;;;;;;3.23;100.00;96711.35;110514;1239;69774;-68
2023/12/03 05:35:51;;;;;;;18.80;12.40;;;;;;;3.14;100.00;96714.77;110585;1238;68029;-68
2023/12/03 05:38:22;;;;;;;22.00;14.50;;;;;;;3.07;100.00;96729.23;110693;1239;59038;-67
2023/12/03 05:40:53;;;;;;;20.70;14.40;;;;;;;3.03;100.00;96735.98;110602;1239;58821;-67
2023/12/03 05:43:26;;;;;;;19.90;13.50;;;;;;;2.92;100.00;96745.55;110641;1239;69847;-67
2023/12/03 05:45:56;;;;;;;;;;;;;;;2.88;100.00;96744.69;110689;1238;69283;-67
2023/12/03 05:48:27;;;;;;;17.00;12.30;;;;;;;2.85;100.00;96747.60;110702;1238;69342;-67
2023/12/03 05:50:58;;;;;;;21.90;14.40;;;;;;;2.82;100.00;96756.19;110540;1241;58840;-67
2023/12/03 05:53:28;;;;;;;21.30;14.30;;;;;;;2.80;100.00;96764.57;111415;1238;58886;-69
2023/12/03 05:55:58;;;;;;;;;;;;;;;2.77;100.00;96770.73;111055;1237;70581;-67
2023/12/03 05:58:28;;;;;;;52.00;33.60;;;;;;;2.76;100.00;96780.27;110591;1239;68573;-68
2023/12/03 06:00:59;;;;;;;45.30;30.50;;;;;;;2.75;100.00;96785.48;110621;1238;67712;-68
2023/12/03 06:03:30;;;;;;;47.40;29.60;;;;;;;2.73;100.00;96790.59;110593;1239;58902;-67
2023/12/03 06:06:02;;;;;;;30.00;21.40;;;;;;;2.71;100.00;96788.61;110639;1239;58837;-67
2023/12/03 06:08:32;;;;;;;26.10;18.00;;;;;;;2.68;100.00;96791.02;110692;1238;70623;-69
2023/12/03 06:11:03;;;;;;;27.70;16.60;;;;;;;2.62;100.00;96797.33;110623;1239;68759;-68
2023/12/03 06:13:34;;;;;;;25.40;20.40;;;;;;;2.57;100.00;96814.83;110496;1237;68754;-68
2023/12/03 06:16:04;;;;;;;23.40;16.50;;;;;;;2.51;100.00;96823.88;110448;1238;58935;-68
2023/12/03 06:18:35;;;;;;;21.60;16.90;;;;;;;2.44;100.00;96837.45;110569;1238;58829;-68
2023/12/03 06:21:05;;;;;;;21.00;15.80;;;;;;;2.43;100.00;96848.88;110536;1237;70433;-67
2023/12/03 06:23:34;;;;;;;19.00;13.80;;;;;;;2.41;100.00;96859.28;110518;1239;69682;-67
2023/12/03 06:26:04;;;;;;;;;;;;;;;2.34;100.00;96866.66;110490;1238;69118;-67
2023/12/03 06:28:34;;;;;;;17.70;13.50;;;;;;;2.24;100.00;96877.80;110512;1239;58879;-66
2023/12/03 06:31:07;;;;;;;20.00;13.00;;;;;;;2.14;100.00;96885.35;110465;1238;58934;-67
2023/12/03 06:33:36;;;;;;;16.50;11.70;;;;;;;2.09;100.00;96893.86;110536;1239;70066;-66
2023/12/03 06:36:07;;;;;;;19.70;13.50;;;;;;;2.05;100.00;96897.61;110527;1238;69155;-67
2023/12/03 06:38:36;;;;;;;16.30;12.70;;;;;;;2.04;100.00;96907.98;110590;1245;68399;-67
2023/12/03 06:41:05;;;;;;;19.90;13.60;;;;;;;2.03;100.00;96920.91;110479;1239;58896;-67
2023/12/03 06:43:35;;;;;;;19.10;13.30;;;;;;;2.01;100.00;96931.98;110528;1239;58859;-67
2023/12/03 06:46:05;;;;;;;18.00;12.90;;;;;;;2.00;100.00;96933.23;110638;1239;69736;-66
2023/12/03 06:48:36;;;;;;;20.20;13.00;;;;;;;2.00;100.00;96934.98;110495;1239;69658;-66
2023/12/03 06:51:06;;;;;;;14.70;10.70;;;;;;;1.99;100.00;96935.88;110571;1238;68792;-67
2023/12/03 06:53:35;;;;;;;17.90;12.20;;;;;;;1.97;100.00;96946.98;110509;1239;58938;-67
2023/12/03 06:56:08;;;;;;;16.10;11.90;;;;;;;1.93;100.00;96954.37;110556;1239;58945;-67
2023/12/03 06:58:39;;;;;;;19.80;13.20;;;;;;;1.93;100.00;96957.13;110549;1239;69994;-67
2023/12/03 07:01:12;;;;;;;18.80;12.80;;;;;;;1.90;100.00;96967.39;110559;1239;69653;-67
2023/12/03 07:03:42;;;;;;;17.60;13.10;;;;;;;1.86;100.00;96972.91;110448;1239;69875;-67
2023/12/03 07:06:12;;;;;;;18.80;12.80;;;;;;;1.87;100.00;96980.97;110484;1238;58950;-67
2023/12/03 07:08:42;;;;;;;18.40;12.60;;;;;;;1.85;100.00;96989.12;110504;1239;58867;-69
2023/12/03 07:11:13;;;;;;;17.40;12.20;;;;;;;1.84;100.00;96992.42;110486;1239;68690;-66
2023/12/03 07:13:43;;;;;;;16.20;11.70;;;;;;;1.84;100.00;97001.84;110550;1239;69298;-68
2023/12/03 07:16:12;;;;;;;;;;;;;;;1.87;100.00;97006.89;110505;1237;69266;-68
2023/12/03 07:18:45;;;;;;;19.50;12.20;;;;;;;1.88;100.00;97012.48;110696;1239;58895;-68
2023/12/03 07:21:15;;;;;;;14.40;10.50;;;;;;;1.92;100.00;97016.98;110526;1239;58872;-67
2023/12/03 07:23:46;;;;;;;20.50;13.00;;;;;;;1.92;100.00;97027.27;110482;1238;70543;-67
2023/12/03 07:26:15;;;;;;;24.90;18.00;;;;;;;1.94;100.00;97035.28;110480;1239;69723;-67
2023/12/03 07:28:44;;;;;;;25.40;19.00;;;;;;;1.95;100.00;97035.75;110599;1238;69538;-68
2023/12/03 07:31:13;;;;;;;21.30;16.90;;;;;;;1.94;100.00;97037.84;110647;1239;58860;-67
2023/12/03 07:33:42;;;;;;;19.30;14.20;;;;;;;1.91;100.00;97037.66;110572;1239;58851;-67
2023/12/03 07:36:12;;;;;;;20.10;13.20;;;;;;;1.89;100.00;97030.50;110524;1237;70658;-67
2023/12/03 07:38:41;;;;;;;16.60;12.20;;;;;;;1.89;100.00;97027.58;110506;1239;69200;-68
2023/12/03 07:41:11;;;;;;;16.90;12.10;;;;;;;1.90;100.00;97029.80;110420;1239;70323;-68
2023/12/03 07:43:41;;;;;;;16.70;11.20;;;;;;;1.87;100.00;97036.09;110617;1239;58918;-68
2023/12/03 07:46:16;;;;;;;18.60;10.80;;;;;;;1.81;100.00;97036.19;110592;1239;58861;-68
2023/12/03 07:48:46;;;;;;;14.60;11.20;;;;;;;1.79;100.00;97044.70;110763;1239;71167;-68
2023/12/03 07:51:16;;;;;;;17.70;11.50;;;;;;;1.74;100.00;97049.02;110586;1239;69194;-68
2023/12/03 07:53:46;;;;;;;;;;;;;;;1.74;100.00;97053.32;110477;1239;69073;-67
2023/12/03 07:56:15;;;;;;;20.30;14.50;;;;;;;1.72;100.00;97048.11;110475;1239;58899;-69
2023/12/03 07:58:44;;;;;;;20.60;14.10;;;;;;;1.72;100.00;97052.73;110512;1240;58791;-66
2023/12/03 08:01:13;;;;;;;18.60;14.10;;;;;;;1.64;100.00;97059.77;110470;1239;70414;-67
2023/12/03 08:03:42;;;;;;;16.90;11.90;;;;;;;1.69;100.00;97076.23;110480;1238;70172;-66
2023/12/03 08:06:11;;;;;;;15.70;11.40;;;;;;;1.68;100.00;97090.69;110476;1239;69828;-67
2023/12/03 08:08:41;;;;;;;15.20;11.80;;;;;;;1.64;100.00;97107.55;110501;1239;58934;-67
2023/12/03 08:11:10;;;;;;;15.50;11.20;;;;;;;1.63;100.00;97120.97;110502;1246;58926;-67
2023/12/03 08:13:42;;;;;;;17.70;12.50;;;;;;;1.60;100.00;97130.20;110487;1239;70570;-67
2023/12/03 08:16:11;;;;;;;15.20;10.80;;;;;;;1.59;100.00;97137.99;110390;1241;69668;-67
2023/12/03 08:18:40;;;;;;;14.60;10.60;;;;;;;1.55;100.00;97146.05;110670;1238;69823;-67
2023/12/03 08:21:10;;;;;;;15.50;10.50;;;;;;;1.52;100.00;97149.94;110561;1239;58933;-67
2023/12/03 08:23:40;;;;;;;15.80;10.70;;;;;;;1.50;100.00;97150.17;110521;1237;58953;-67
2023/12/03 08:26:10;;;;;;;13.90;9.60;;;;;;;1.50;100.00;97150.00;110463;1240;70990;-67
2023/12/03 08:28:39;;;;;;;17.20;10.30;;;;;;;1.44;100.00;97150.77;110499;1238;69204;-67
2023/12/03 08:31:08;;;;;;;13.60;10.50;;;;;;;1.49;100.00;97153.14;110452;1239;69681;-67
2023/12/03 08:33:37;;;;;;;14.30;9.80;;;;;;;1.50;100.00;97156.88;110509;1239;58858;-67
2023/12/03 08:36:08;;;;;;;14.80;9.70;;;;;;;1.47;100.00;97160.45;110480;1239;58864;-67
2023/12/03 08:38:37;;;;;;;;;;;;;;;1.50;100.00;97163.42;110392;1238;69654;-67
2023/12/03 08:41:06;;;;;;;14.20;10.10;;;;;;;1.45;100.00;97163.63;110541;1239;69661;-68
2023/12/03 08:43:36;;;;;;;12.90;9.20;;;;;;;1.40;100.00;97164.17;110569;1238;70042;-67
2023/12/03 08:46:06;;;;;;;11.70;9.30;;;;;;;1.41;100.00;97166.86;110595;1238;59026;-69
2023/12/03 08:48:35;;;;;;;14.80;10.40;;;;;;;1.39;100.00;97172.77;110609;1241;58863;-66
2023/12/03 08:51:05;;;;;;;12.50;9.00;;;;;;;1.44;100.00;97173.30;110535;1239;69803;-66
2023/12/03 08:53:35;;;;;;;13.40;8.80;;;;;;;1.45;100.00;97174.42;110683;1237;69140;-66
2023/12/03 08:56:09;;;;;;;15.20;10.60;;;;;;;1.48;100.00;97175.36;110465;1241;69242;-67
2023/12/03 08:58:42;;;;;;;14.10;10.40;;;;;;;1.38;100.00;97182.80;110566;1238;58937;-67
2023/12/03 09:01:11;;;;;;;15.10;10.30;;;;;;;1.43;100.00;97186.03;110503;1239;59328;-67
2023/12/03 09:03:40;;;;;;;15.90;10.70;;;;;;;1.45;100.00;97192.31;110487;1239;70572;-67
2023/12/03 09:06:10;;;;;;;12.10;9.30;;;;;;;1.42;100.00;97195.15;110528;1239;69711;-66
2023/12/03 09:08:39;;;;;;;14.00;10.00;;;;;;;1.43;100.00;97204.06;110483;1239;69291;-67
2023/12/03 09:11:11;;;;;;;12.80;9.50;;;;;;;1.44;100.00;97210.02;110478;1239;58878;-67
2023/12/03 09:13:40;;;;;;;14.40;9.60;;;;;;;1.43;100.00;97217.09;110601;1239;58833;-67
2023/12/03 09:16:10;;;;;;;14.50;9.30;;;;;;;1.41;100.00;97222.17;110601;1238;71329;-67
2023/12/03 09:18:38;;;;;;;13.60;9.40;;;;;;;1.40;100.00;97223.59;110504;1240;68423;-67
2023/12/03 09:21:11;;;;;;;14.30;9.10;;;;;;;1.40;100.00;97222.91;110541;1238;69284;-67
2023/12/03 09:23:40;;;;;;;12.50;9.10;;;;;;;1.38;100.00;97225.89;110578;1237;58937;-67
2023/12/03 09:26:09;;;;;;;13.80;9.90;;;;;;;1.35;100.00;97229.45;110591;1239;58868;-67
2023/12/03 09:28:39;;;;;;;13.20;8.90;;;;;;;1.29;100.00;97235.70;110534;1238;69842;-67
2023/12/03 09:31:08;;;;;;;13.40;10.70;;;;;;;1.28;100.00;97245.15;110567;1239;69247;-67
2023/12/03 09:33:37;;;;;;;14.00;10.90;;;;;;;1.27;100.00;97251.91;110453;1241;69263;-67
2023/12/03 09:36:09;;;;;;;14.10;9.60;;;;;;;1.26;100.00;97260.34;110415;1238;58857;-67
2023/12/03 09:38:38;;;;;;;11.10;8.80;;;;;;;1.27;100.00;97258.78;110528;1239;58823;-67
2023/12/03 09:41:13;;;;;;;14.20;10.70;;;;;;;1.23;100.00;97259.76;110518;1237;70540;-67
2023/12/03 09:43:46;;;;;;;14.20;8.50;;;;;;;1.17;100.00;97255.03;110563;1240;69543;-67
2023/12/03 09:46:14;;;;;;;13.50;9.10;;;;;;;1.15;100.00;97256.32;110593;1239;69244;-67
2023/12/03 09:48:44;;;;;;;14.70;9.40;;;;;;;1.18;100.00;97259.30;110455;1239;58851;-67
2023/12/03 09:51:15;;;;;;;11.50;8.30;;;;;;;1.20;100.00;97264.20;110432;1239;58874;-67
2023/12/03 09:53:46;;;;;;;14.30;10.10;;;;;;;1.22;100.00;97263.60;110532;1239;70545;-67
2023/12/03 09:56:16;;;;;;;12.20;9.70;;;;;;;1.14;100.00;97274.70;110526;1238;69252;-67
2023/12/03 09:58:49;;;;;;;14.50;9.50;;;;;;;1.13;100.00;97272.17;110463;1238;69771;-67
2023/12/03 10:01:18;;;;;;;12.70;8.70;;;;;;;1.11;100.00;97272.42;110569;1238;58938;-67
2023/12/03 10:03:51;;;;;;;13.40;9.90;;;;;;;1.12;100.00;97273.92;110562;1239;58871;-67
2023/12/03 10:06:23;;;;;;;14.50;9.20;;;;;;;1.17;100.00;97278.71;110505;1239;69617;-67
2023/12/03 10:08:52;;;;;;;13.60;9.00;;;;;;;1.16;100.00;97279.09;110541;1239;68348;-67
2023/12/03 10:11:28;;;;;;;13.30;9.40;;;;;;;1.21;100.00;97274.27;110590;1238;68484;-67
2023/12/03 10:14:01;;;;;;;15.00;9.50;;;;;;;1.22;100.00;97264.95;110508;1239;58857;-67
2023/12/03 10:16:30;;;;;;;14.40;10.20;;;;;;;1.18;100.00;97253.80;110510;1239;59104;-67
2023/12/03 10:18:59;;;;;;;12.20;10.10;;;;;;;1.25;100.00;97255.77;110484;1238;69810;-67
2023/12/03 10:21:28;;;;;;;12.90;9.50;;;;;;;1.28;100.00;97260.45;110619;1239;69280;-67
2023/12/03 10:24:05;;;;;;;13.50;10.30;;;;;;;1.36;100.00;97261.34;110542;1239;69611;-67
2023/12/03 10:26:34;;;;;;;13.60;10.20;;;;;;;1.42;100.00;97270.05;110480;1245;58943;-67
2023/12/03 10:29:03;;;;;;;15.10;11.10;;;;;;;1.47;100.00;97277.04;110478;1239;58839;-67
2023/12/03 10:31:32;;;;;;;13.50;10.30;;;;;;;1.48;100.00;97279.77;110507;1239;70567;-68
2023/12/03 10:34:03;;;;;;;15.30;11.50;;;;;;;1.49;100.00;97281.78;110490;1241;69927;-67
2023/12/03 10:36:32;;;;;;;12.80;8.60;;;;;;;1.51;100.00;97287.38;110545;1238;69108;-67
2023/12/03 10:39:07;;;;;;;12.30;8.90;;;;;;;1.52;100.00;97292.83;110494;1239;58921;-67
2023/12/03 10:41:38;;;;;;;11.70;9.70;;;;;;;1.55;100.00;97290.67;110538;1239;58935;-67
2023/12/03 10:44:07;;;;;;;13.60;10.10;;;;;;;1.58;100.00;97291.23;110515;1239;71154;-67
2023/12/03 10:46:41;;;;;;;13.80;9.90;;;;;;;1.60;100.00;97300.45;110500;1239;69209;-68
2023/12/03 10:49:14;;;;;;;15.20;10.90;;;;;;;1.61;100.00;97303.30;110606;1239;69151;-68
2023/12/03 10:51:44;;;;;;;12.70;9.70;;;;;;;1.58;100.00;97302.59;110480;1238;59349;-68
2023/12/03 10:54:13;;;;;;;11.40;8.60;;;;;;;1.58;100.00;97303.10;110483;1238;58892;-68
2023/12/03 10:56:43;;;;;;;10.60;8.60;;;;;;;1.56;100.00;97301.29;110471;1238;70562;-68
2023/12/03 10:59:15;;;;;;;12.00;9.00;;;;;;;1.56;100.00;97302.48;110510;1239;69202;-68
2023/12/03 11:01:49;;;;;;;11.40;9.20;;;;;;;1.55;100.00;97302.50;110516;1244;69271;-68
2023/12/03 11:04:28;;;;;;;14.20;9.80;;;;;;;1.57;100.00;97309.50;110476;1239;58896;-68
2023/12/03 11:06:58;;;;;;;13.90;10.40;;;;;;;1.56;100.00;97312.10;110496;1239;58849;-67
2023/12/03 11:09:28;;;;;;;17.90;13.90;;;;;;;1.57;100.00;97311.20;110501;1238;70962;-67
2023/12/03 11:11:58;;;;;;;13.00;10.10;;;;;;;1.57;100.00;97318.08;110601;1239;69406;-68
2023/12/03 11:14:27;;;;;;;12.90;9.00;;;;;;;1.47;100.00;97324.14;110471;1238;69285;-67
2023/12/03 11:16:59;;;;;;;;;;;;;;;1.48;100.00;97330.42;110516;1239;58886;-68
2023/12/03 11:19:31;;;;;;;12.20;7.70;;;;;;;1.49;100.00;97334.35;110531;1239;58901;-68
2023/12/03 11:22:28;;;;;;;11.40;8.20;;;;;;;1.43;100.00;97333.86;110505;1239;70614;-68
2023/12/03 11:25:13;;;;;;;13.60;10.00;;;;;;;1.40;100.00;97338.48;110500;1239;70147;-68
2023/12/03 11:27:42;;;;;;;13.00;10.10;;;;;;;1.44;100.00;97339.68;110501;1239;69278;-68
2023/12/03 11:30:13;;;;;;;15.20;10.90;;;;;;;1.42;100.00;97339.23;110575;1239;58908;-68
2023/12/03 11:32:42;;;;;;;19.00;14.20;;;;;;;1.41;100.00;97339.11;110427;1238;58938;-68
2023/12/03 11:35:17;;;;;;;19.90;13.90;;;;;;;1.38;100.00;97340.77;110679;1239;70940;-68
2023/12/03 11:37:46;;;;;;;22.10;16.50;;;;;;;1.36;100.00;97341.35;110589;1239;69822;-68
2023/12/03 11:40:17;;;;;;;19.60;15.70;;;;;;;1.36;100.00;97343.23;110668;1239;69444;-68